sensor_id;sensor_type;location;lat;lon;timestamp;temperature;humidity
34829;DHT22;21042;47.620;12.188;2023-07-24T00:02:26;18.20;99.90
34829;DHT22;21042;47.620;12.188;2023-07-24T00:04:53;18.10;99.90
34829;DHT22;21042;47.620;12.188;2023-07-24T00:07:20;18.00;99.90
34829;DHT22;21042;47.620;12.188;2023-07-24T00:09:47;18.10;99.90
34829;DHT22;21042;47.620;12.188;2023-07-24T00:12:14;18.10;99.90
34829;DHT22;21042;47.620;12.188;2023-07-24T00:14:41;18.10;99.90
34829;DHT22;21042;47.620;12.188;2023-07-24T00:17:07;18.10;99.90
34829;DHT22;21042;47.620;12.188;2023-07-24T00:19:34;18.10;99.90
34829;DHT22;21042;47.620;12.188;2023-07-24T00:22:01;18.10;99.90
34829;DHT22;21042;47.620;12.188;2023-07-24T00:24:30;18.00;99.90
34829;DHT22;21042;47.620;12.188;2023-07-24T00:26:58;18.00;99.90
34829;DHT22;21042;47.620;12.188;2023-07-24T00:29:24;18.00;99.90
34829;DHT22;21042;47.620;12.188;2023-07-24T00:31:51;18.00;99.90
34829;DHT22;21042;47.620;12.188;2023-07-24T00:34:18;18.10;99.90
34829;DHT22;21042;47.620;12.188;2023-07-24T00:36:45;18.00;99.90
34829;DHT22;21042;47.620;12.188;2023-07-24T00:39:14;18.00;99.90
34829;DHT22;21042;47.620;12.188;2023-07-24T00:41:41;18.00;99.90
34829;DHT22;21042;47.620;12.188;2023-07-24T00:44:08;18.00;99.90
34829;DHT22;21042;47.620;12.188;2023-07-24T00:46:36;18.00;99.90
34829;DHT22;21042;47.620;12.188;2023-07-24T00:49:04;18.00;99.90
34829;DHT22;21042;47.620;12.188;2023-07-24T00:51:32;18.00;99.90
34829;DHT22;21042;47.620;12.188;2023-07-24T00:54:02;17.90;99.90
34829;DHT22;21042;47.620;12.188;2023-07-24T00:56:30;17.90;99.90
34829;DHT22;21042;47.620;12.188;2023-07-24T00:58:59;17.90;99.90
34829;DHT22;21042;47.620;12.188;2023-07-24T01:01:26;18.00;99.90
34829;DHT22;21042;47.620;12.188;2023-07-24T01:03:53;18.00;99.90
34829;DHT22;21042;47.620;12.188;2023-07-24T01:06:20;18.10;99.90
34829;DHT22;21042;47.620;12.188;2023-07-24T01:08:47;18.00;99.90
34829;DHT22;21042;47.620;12.188;2023-07-24T01:11:23;18.00;99.90
34829;DHT22;21042;47.620;12.188;2023-07-24T01:14:12;18.00;99.90
34829;DHT22;21042;47.620;12.188;2023-07-24T01:16:42;18.00;99.90
34829;DHT22;21042;47.620;12.188;2023-07-24T01:22:08;17.90;99.90
34829;DHT22;21042;47.620;12.188;2023-07-24T01:27:24;17.70;99.90
34829;DHT22;21042;47.620;12.188;2023-07-24T01:29:52;17.70;99.90
34829;DHT22;21042;47.620;12.188;2023-07-24T01:32:19;17.70;99.90
34829;DHT22;21042;47.620;12.188;2023-07-24T01:34:47;17.60;99.90
34829;DHT22;21042;47.620;12.188;2023-07-24T01:37:15;17.60;99.90
34829;DHT22;21042;47.620;12.188;2023-07-24T01:39:43;17.70;99.90
34829;DHT22;21042;47.620;12.188;2023-07-24T01:42:11;17.60;99.90
34829;DHT22;21042;47.620;12.188;2023-07-24T01:44:38;17.60;99.90
34829;DHT22;21042;47.620;12.188;2023-07-24T01:47:05;17.50;99.90
34829;DHT22;21042;47.620;12.188;2023-07-24T01:49:32;17.50;99.90
34829;DHT22;21042;47.620;12.188;2023-07-24T01:51:59;17.50;99.90
34829;DHT22;21042;47.620;12.188;2023-07-24T01:54:25;17.60;99.90
34829;DHT22;21042;47.620;12.188;2023-07-24T01:56:52;17.60;99.90
34829;DHT22;21042;47.620;12.188;2023-07-24T01:59:19;17.60;99.90
34829;DHT22;21042;47.620;12.188;2023-07-24T02:01:46;17.60;99.90
34829;DHT22;21042;47.620;12.188;2023-07-24T02:04:14;17.60;99.90
34829;DHT22;21042;47.620;12.188;2023-07-24T02:06:41;17.60;99.90
34829;DHT22;21042;47.620;12.188;2023-07-24T02:09:07;17.60;99.90
34829;DHT22;21042;47.620;12.188;2023-07-24T02:11:34;17.70;99.90
34829;DHT22;21042;47.620;12.188;2023-07-24T02:14:01;17.70;99.90
34829;DHT22;21042;47.620;12.188;2023-07-24T02:16:28;17.80;99.90
34829;DHT22;21042;47.620;12.188;2023-07-24T02:18:55;17.50;99.90
34829;DHT22;21042;47.620;12.188;2023-07-24T02:21:22;17.60;99.90
34829;DHT22;21042;47.620;12.188;2023-07-24T02:23:49;17.60;99.90
34829;DHT22;21042;47.620;12.188;2023-07-24T02:26:15;17.50;99.90
34829;DHT22;21042;47.620;12.188;2023-07-24T02:28:42;17.50;99.90
34829;DHT22;21042;47.620;12.188;2023-07-24T02:31:09;17.40;99.90
34829;DHT22;21042;47.620;12.188;2023-07-24T02:33:36;17.40;99.90
34829;DHT22;21042;47.620;12.188;2023-07-24T02:36:03;17.50;99.90
34829;DHT22;21042;47.620;12.188;2023-07-24T02:38:29;17.40;99.90
34829;DHT22;21042;47.620;12.188;2023-07-24T02:40:57;17.40;99.90
34829;DHT22;21042;47.620;12.188;2023-07-24T02:43:23;17.40;99.90
34829;DHT22;21042;47.620;12.188;2023-07-24T02:45:50;17.40;99.90
34829;DHT22;21042;47.620;12.188;2023-07-24T02:48:17;17.30;99.90
34829;DHT22;21042;47.620;12.188;2023-07-24T02:50:44;17.30;99.90
34829;DHT22;21042;47.620;12.188;2023-07-24T02:53:10;17.30;99.90
34829;DHT22;21042;47.620;12.188;2023-07-24T02:55:42;17.30;99.90
34829;DHT22;21042;47.620;12.188;2023-07-24T02:58:12;17.30;99.90
34829;DHT22;21042;47.620;12.188;2023-07-24T03:00:40;17.20;99.90
34829;DHT22;21042;47.620;12.188;2023-07-24T03:03:06;17.20;99.90
34829;DHT22;21042;47.620;12.188;2023-07-24T03:05:34;17.20;99.90
34829;DHT22;21042;47.620;12.188;2023-07-24T03:08:01;17.20;99.90
34829;DHT22;21042;47.620;12.188;2023-07-24T03:10:29;17.20;99.90
34829;DHT22;21042;47.620;12.188;2023-07-24T03:12:56;17.20;99.90
34829;DHT22;21042;47.620;12.188;2023-07-24T03:15:23;17.20;99.90
34829;DHT22;21042;47.620;12.188;2023-07-24T03:17:49;17.20;99.90
34829;DHT22;21042;47.620;12.188;2023-07-24T03:20:18;17.20;99.90
34829;DHT22;21042;47.620;12.188;2023-07-24T03:22:45;17.10;99.90
34829;DHT22;21042;47.620;12.188;2023-07-24T03:25:13;17.10;99.90
34829;DHT22;21042;47.620;12.188;2023-07-24T03:27:40;17.20;99.90
34829;DHT22;21042;47.620;12.188;2023-07-24T03:30:07;17.10;99.90
34829;DHT22;21042;47.620;12.188;2023-07-24T03:32:36;17.10;99.90
34829;DHT22;21042;47.620;12.188;2023-07-24T03:35:04;17.20;99.90
34829;DHT22;21042;47.620;12.188;2023-07-24T03:37:32;17.10;99.90
34829;DHT22;21042;47.620;12.188;2023-07-24T03:39:58;17.10;99.90
34829;DHT22;21042;47.620;12.188;2023-07-24T03:42:31;17.10;99.90
34829;DHT22;21042;47.620;12.188;2023-07-24T03:44:58;17.00;99.90
34829;DHT22;21042;47.620;12.188;2023-07-24T03:47:25;17.00;99.90
34829;DHT22;21042;47.620;12.188;2023-07-24T03:49:52;16.90;99.90
34829;DHT22;21042;47.620;12.188;2023-07-24T03:52:19;17.10;99.90
34829;DHT22;21042;47.620;12.188;2023-07-24T03:54:46;17.00;99.90
34829;DHT22;21042;47.620;12.188;2023-07-24T03:57:13;17.10;99.90
34829;DHT22;21042;47.620;12.188;2023-07-24T03:59:40;17.00;99.90
34829;DHT22;21042;47.620;12.188;2023-07-24T04:02:07;17.00;99.90
34829;DHT22;21042;47.620;12.188;2023-07-24T04:04:36;17.10;99.90
34829;DHT22;21042;47.620;12.188;2023-07-24T04:07:04;17.00;99.90
34829;DHT22;21042;47.620;12.188;2023-07-24T04:09:31;17.00;99.90
34829;DHT22;21042;47.620;12.188;2023-07-24T04:11:57;17.00;99.90
34829;DHT22;21042;47.620;12.188;2023-07-24T04:14:24;16.90;99.90
34829;DHT22;21042;47.620;12.188;2023-07-24T04:16:51;16.90;99.90
34829;DHT22;21042;47.620;12.188;2023-07-24T04:19:18;16.90;99.90
34829;DHT22;21042;47.620;12.188;2023-07-24T04:21:45;17.00;99.90
34829;DHT22;21042;47.620;12.188;2023-07-24T04:24:11;17.00;99.90
34829;DHT22;21042;47.620;12.188;2023-07-24T04:26:38;16.90;99.90
34829;DHT22;21042;47.620;12.188;2023-07-24T04:29:06;16.90;99.90
34829;DHT22;21042;47.620;12.188;2023-07-24T04:31:33;16.80;99.90
34829;DHT22;21042;47.620;12.188;2023-07-24T04:34:00;16.90;99.90
34829;DHT22;21042;47.620;12.188;2023-07-24T04:36:27;16.90;99.90
34829;DHT22;21042;47.620;12.188;2023-07-24T04:38:54;16.90;99.90
34829;DHT22;21042;47.620;12.188;2023-07-24T04:41:21;16.70;99.90
34829;DHT22;21042;47.620;12.188;2023-07-24T04:43:47;16.90;99.90
34829;DHT22;21042;47.620;12.188;2023-07-24T04:46:14;17.00;99.90
34829;DHT22;21042;47.620;12.188;2023-07-24T04:48:41;17.10;99.90
34829;DHT22;21042;47.620;12.188;2023-07-24T04:51:08;17.10;99.90
34829;DHT22;21042;47.620;12.188;2023-07-24T04:53:34;17.20;99.90
34829;DHT22;21042;47.620;12.188;2023-07-24T04:56:01;17.20;99.90
34829;DHT22;21042;47.620;12.188;2023-07-24T04:58:28;17.30;99.90
34829;DHT22;21042;47.620;12.188;2023-07-24T05:00:55;17.50;99.90
34829;DHT22;21042;47.620;12.188;2023-07-24T05:03:21;17.50;99.90
34829;DHT22;21042;47.620;12.188;2023-07-24T05:05:53;17.60;99.90
34829;DHT22;21042;47.620;12.188;2023-07-24T05:08:20;17.70;99.90
34829;DHT22;21042;47.620;12.188;2023-07-24T05:10:47;17.70;99.90
34829;DHT22;21042;47.620;12.188;2023-07-24T05:13:13;17.80;99.90
34829;DHT22;21042;47.620;12.188;2023-07-24T05:15:40;17.90;99.90
34829;DHT22;21042;47.620;12.188;2023-07-24T05:18:07;17.90;99.90
34829;DHT22;21042;47.620;12.188;2023-07-24T05:20:34;18.00;99.90
34829;DHT22;21042;47.620;12.188;2023-07-24T05:23:01;18.00;99.90
34829;DHT22;21042;47.620;12.188;2023-07-24T05:25:27;18.10;99.90
34829;DHT22;21042;47.620;12.188;2023-07-24T05:27:54;18.10;99.90
34829;DHT22;21042;47.620;12.188;2023-07-24T05:30:21;18.30;99.90
34829;DHT22;21042;47.620;12.188;2023-07-24T05:32:47;18.50;99.90
34829;DHT22;21042;47.620;12.188;2023-07-24T05:35:14;18.60;99.90
34829;DHT22;21042;47.620;12.188;2023-07-24T05:37:41;18.70;99.90
34829;DHT22;21042;47.620;12.188;2023-07-24T05:40:08;18.70;99.90
34829;DHT22;21042;47.620;12.188;2023-07-24T05:42:35;18.90;99.90
34829;DHT22;21042;47.620;12.188;2023-07-24T05:45:08;18.90;99.90
34829;DHT22;21042;47.620;12.188;2023-07-24T05:47:35;19.00;99.90
34829;DHT22;21042;47.620;12.188;2023-07-24T05:50:02;18.90;99.90
34829;DHT22;21042;47.620;12.188;2023-07-24T05:52:29;18.90;99.90
34829;DHT22;21042;47.620;12.188;2023-07-24T05:54:56;18.80;99.90
34829;DHT22;21042;47.620;12.188;2023-07-24T05:57:23;18.80;99.90
34829;DHT22;21042;47.620;12.188;2023-07-24T05:59:49;18.80;99.90
34829;DHT22;21042;47.620;12.188;2023-07-24T06:02:18;18.80;99.90
34829;DHT22;21042;47.620;12.188;2023-07-24T06:04:45;18.80;99.90
34829;DHT22;21042;47.620;12.188;2023-07-24T06:07:12;18.90;99.90
34829;DHT22;21042;47.620;12.188;2023-07-24T06:09:38;18.90;99.90
34829;DHT22;21042;47.620;12.188;2023-07-24T06:12:05;18.90;99.90
34829;DHT22;21042;47.620;12.188;2023-07-24T06:14:32;18.90;99.90
34829;DHT22;21042;47.620;12.188;2023-07-24T06:16:59;18.80;99.90
34829;DHT22;21042;47.620;12.188;2023-07-24T06:19:26;18.90;99.90
34829;DHT22;21042;47.620;12.188;2023-07-24T06:21:52;18.90;99.90
34829;DHT22;21042;47.620;12.188;2023-07-24T06:24:19;19.00;99.90
34829;DHT22;21042;47.620;12.188;2023-07-24T06:26:47;18.90;99.90
34829;DHT22;21042;47.620;12.188;2023-07-24T06:29:14;19.00;99.90
34829;DHT22;21042;47.620;12.188;2023-07-24T06:31:41;18.90;99.90
34829;DHT22;21042;47.620;12.188;2023-07-24T06:34:08;18.80;99.90
34829;DHT22;21042;47.620;12.188;2023-07-24T06:36:34;18.90;99.90
34829;DHT22;21042;47.620;12.188;2023-07-24T06:39:04;19.00;99.90
34829;DHT22;21042;47.620;12.188;2023-07-24T06:41:31;19.30;99.90
34829;DHT22;21042;47.620;12.188;2023-07-24T06:43:58;19.40;99.90
34829;DHT22;21042;47.620;12.188;2023-07-24T06:46:25;19.60;99.90
34829;DHT22;21042;47.620;12.188;2023-07-24T06:48:52;19.70;99.90
34829;DHT22;21042;47.620;12.188;2023-07-24T06:51:18;19.70;99.90
34829;DHT22;21042;47.620;12.188;2023-07-24T06:53:45;19.70;99.90
34829;DHT22;21042;47.620;12.188;2023-07-24T06:56:12;19.60;99.90
34829;DHT22;21042;47.620;12.188;2023-07-24T06:58:40;19.60;99.90
34829;DHT22;21042;47.620;12.188;2023-07-24T07:01:07;19.70;99.90
34829;DHT22;21042;47.620;12.188;2023-07-24T07:03:34;19.90;99.90
34829;DHT22;21042;47.620;12.188;2023-07-24T07:06:03;20.00;99.90
34829;DHT22;21042;47.620;12.188;2023-07-24T07:08:30;20.20;99.90
34829;DHT22;21042;47.620;12.188;2023-07-24T07:10:58;20.40;99.90
34829;DHT22;21042;47.620;12.188;2023-07-24T07:13:25;20.60;99.90
34829;DHT22;21042;47.620;12.188;2023-07-24T07:15:52;20.80;99.90
34829;DHT22;21042;47.620;12.188;2023-07-24T07:18:18;21.10;99.90
34829;DHT22;21042;47.620;12.188;2023-07-24T07:20:49;21.20;99.90
34829;DHT22;21042;47.620;12.188;2023-07-24T07:23:17;21.20;99.90
34829;DHT22;21042;47.620;12.188;2023-07-24T07:25:43;21.10;99.90
34829;DHT22;21042;47.620;12.188;2023-07-24T07:28:12;21.10;99.90
34829;DHT22;21042;47.620;12.188;2023-07-24T07:30:40;21.20;99.90
34829;DHT22;21042;47.620;12.188;2023-07-24T07:33:10;21.50;99.90
34829;DHT22;21042;47.620;12.188;2023-07-24T07:35:37;21.60;99.90
34829;DHT22;21042;47.620;12.188;2023-07-24T07:38:04;21.70;99.90
34829;DHT22;21042;47.620;12.188;2023-07-24T07:40:30;21.50;99.90
34829;DHT22;21042;47.620;12.188;2023-07-24T07:42:57;21.50;99.90
34829;DHT22;21042;47.620;12.188;2023-07-24T07:45:24;21.50;99.90
34829;DHT22;21042;47.620;12.188;2023-07-24T07:47:51;21.40;99.90
34829;DHT22;21042;47.620;12.188;2023-07-24T07:50:20;21.30;99.90
34829;DHT22;21042;47.620;12.188;2023-07-24T07:52:50;21.30;99.90
34829;DHT22;21042;47.620;12.188;2023-07-24T07:55:18;21.40;99.90
34829;DHT22;21042;47.620;12.188;2023-07-24T07:57:45;21.40;99.90
34829;DHT22;21042;47.620;12.188;2023-07-24T08:00:13;21.40;99.90
34829;DHT22;21042;47.620;12.188;2023-07-24T08:02:39;21.20;99.90
34829;DHT22;21042;47.620;12.188;2023-07-24T08:05:10;21.20;99.90
34829;DHT22;21042;47.620;12.188;2023-07-24T08:07:46;21.10;99.90
34829;DHT22;21042;47.620;12.188;2023-07-24T08:10:13;21.00;99.90
34829;DHT22;21042;47.620;12.188;2023-07-24T08:12:43;21.00;99.90
34829;DHT22;21042;47.620;12.188;2023-07-24T08:15:10;21.00;99.90
34829;DHT22;21042;47.620;12.188;2023-07-24T08:17:37;21.10;99.90
34829;DHT22;21042;47.620;12.188;2023-07-24T08:20:04;21.00;99.90
34829;DHT22;21042;47.620;12.188;2023-07-24T08:22:31;21.10;99.90
34829;DHT22;21042;47.620;12.188;2023-07-24T08:24:58;21.00;99.90
34829;DHT22;21042;47.620;12.188;2023-07-24T08:27:25;21.00;99.90
34829;DHT22;21042;47.620;12.188;2023-07-24T08:29:52;21.10;99.90
34829;DHT22;21042;47.620;12.188;2023-07-24T08:32:21;21.00;99.90
34829;DHT22;21042;47.620;12.188;2023-07-24T08:34:48;21.00;99.90
34829;DHT22;21042;47.620;12.188;2023-07-24T08:37:15;21.20;99.90
34829;DHT22;21042;47.620;12.188;2023-07-24T08:39:42;21.20;99.90
34829;DHT22;21042;47.620;12.188;2023-07-24T08:42:12;21.20;99.90
34829;DHT22;21042;47.620;12.188;2023-07-24T08:44:40;21.50;99.90
34829;DHT22;21042;47.620;12.188;2023-07-24T08:47:11;21.70;99.90
34829;DHT22;21042;47.620;12.188;2023-07-24T08:49:39;21.90;99.90
34829;DHT22;21042;47.620;12.188;2023-07-24T08:52:08;22.00;99.90
34829;DHT22;21042;47.620;12.188;2023-07-24T08:54:38;22.20;99.90
34829;DHT22;21042;47.620;12.188;2023-07-24T08:57:08;22.20;99.90
34829;DHT22;21042;47.620;12.188;2023-07-24T08:59:35;22.40;99.90
34829;DHT22;21042;47.620;12.188;2023-07-24T09:02:02;22.70;99.90
34829;DHT22;21042;47.620;12.188;2023-07-24T09:04:29;23.20;99.90
34829;DHT22;21042;47.620;12.188;2023-07-24T09:06:56;23.50;99.90
34829;DHT22;21042;47.620;12.188;2023-07-24T09:09:23;23.50;99.90
34829;DHT22;21042;47.620;12.188;2023-07-24T09:11:51;23.60;99.90
34829;DHT22;21042;47.620;12.188;2023-07-24T09:14:28;23.80;99.90
34829;DHT22;21042;47.620;12.188;2023-07-24T09:17:16;24.00;99.90
34829;DHT22;21042;47.620;12.188;2023-07-24T09:19:43;24.00;99.90
34829;DHT22;21042;47.620;12.188;2023-07-24T09:22:14;23.80;99.90
34829;DHT22;21042;47.620;12.188;2023-07-24T09:24:51;23.70;99.90
34829;DHT22;21042;47.620;12.188;2023-07-24T09:27:19;23.80;99.90
34829;DHT22;21042;47.620;12.188;2023-07-24T09:29:46;24.00;99.90
34829;DHT22;21042;47.620;12.188;2023-07-24T09:32:28;24.30;99.90
34829;DHT22;21042;47.620;12.188;2023-07-24T09:34:55;24.70;99.90
34829;DHT22;21042;47.620;12.188;2023-07-24T09:37:32;24.90;99.90
34829;DHT22;21042;47.620;12.188;2023-07-24T09:39:59;25.00;99.90
34829;DHT22;21042;47.620;12.188;2023-07-24T09:42:33;25.00;99.90
34829;DHT22;21042;47.620;12.188;2023-07-24T09:45:01;25.00;99.90
34829;DHT22;21042;47.620;12.188;2023-07-24T09:47:29;25.20;99.90
34829;DHT22;21042;47.620;12.188;2023-07-24T09:50:15;25.50;99.90
34829;DHT22;21042;47.620;12.188;2023-07-24T09:52:43;25.70;99.90
34829;DHT22;21042;47.620;12.188;2023-07-24T09:55:15;25.90;99.90
34829;DHT22;21042;47.620;12.188;2023-07-24T09:57:45;25.90;99.90
34829;DHT22;21042;47.620;12.188;2023-07-24T10:00:12;25.80;99.90
34829;DHT22;21042;47.620;12.188;2023-07-24T10:02:40;25.80;99.90
34829;DHT22;21042;47.620;12.188;2023-07-24T10:05:08;25.90;99.90
34829;DHT22;21042;47.620;12.188;2023-07-24T10:07:35;25.90;99.90
34829;DHT22;21042;47.620;12.188;2023-07-24T10:10:02;25.90;99.90
34829;DHT22;21042;47.620;12.188;2023-07-24T10:12:29;26.30;99.90
34829;DHT22;21042;47.620;12.188;2023-07-24T10:14:57;26.70;99.90
34829;DHT22;21042;47.620;12.188;2023-07-24T10:17:38;26.70;99.90
34829;DHT22;21042;47.620;12.188;2023-07-24T10:20:07;26.50;99.90
34829;DHT22;21042;47.620;12.188;2023-07-24T10:22:35;26.60;99.90
34829;DHT22;21042;47.620;12.188;2023-07-24T10:25:04;26.40;99.90
34829;DHT22;21042;47.620;12.188;2023-07-24T10:27:36;26.50;99.90
34829;DHT22;21042;47.620;12.188;2023-07-24T10:30:04;26.70;99.90
34829;DHT22;21042;47.620;12.188;2023-07-24T10:32:53;26.90;99.90
34829;DHT22;21042;47.620;12.188;2023-07-24T10:35:22;26.90;99.90
34829;DHT22;21042;47.620;12.188;2023-07-24T10:37:59;27.00;99.90
34829;DHT22;21042;47.620;12.188;2023-07-24T10:40:26;27.10;99.90
34829;DHT22;21042;47.620;12.188;2023-07-24T10:43:06;27.00;99.90
34829;DHT22;21042;47.620;12.188;2023-07-24T10:45:45;26.90;99.90
34829;DHT22;21042;47.620;12.188;2023-07-24T10:48:12;26.70;99.90
34829;DHT22;21042;47.620;12.188;2023-07-24T10:50:49;26.60;99.90
34829;DHT22;21042;47.620;12.188;2023-07-24T10:53:21;26.70;99.90
34829;DHT22;21042;47.620;12.188;2023-07-24T10:55:49;26.80;99.90
34829;DHT22;21042;47.620;12.188;2023-07-24T10:58:19;26.90;99.90
34829;DHT22;21042;47.620;12.188;2023-07-24T11:00:46;26.90;99.90
34829;DHT22;21042;47.620;12.188;2023-07-24T11:03:14;26.90;99.90
34829;DHT22;21042;47.620;12.188;2023-07-24T11:05:46;27.10;99.90
34829;DHT22;21042;47.620;12.188;2023-07-24T11:08:15;27.00;99.90
34829;DHT22;21042;47.620;12.188;2023-07-24T11:10:46;27.00;99.90
34829;DHT22;21042;47.620;12.188;2023-07-24T11:13:17;27.00;99.90
34829;DHT22;21042;47.620;12.188;2023-07-24T11:15:44;27.10;99.90
34829;DHT22;21042;47.620;12.188;2023-07-24T11:18:11;27.10;99.90
34829;DHT22;21042;47.620;12.188;2023-07-24T11:23:11;26.90;99.90
34829;DHT22;21042;47.620;12.188;2023-07-24T11:25:38;26.70;99.90
34829;DHT22;21042;47.620;12.188;2023-07-24T11:28:07;26.80;99.90
34829;DHT22;21042;47.620;12.188;2023-07-24T11:30:34;27.00;99.90
34829;DHT22;21042;47.620;12.188;2023-07-24T11:33:06;27.30;99.90
34829;DHT22;21042;47.620;12.188;2023-07-24T11:35:34;27.30;99.90
34829;DHT22;21042;47.620;12.188;2023-07-24T11:38:02;27.50;99.90
34829;DHT22;21042;47.620;12.188;2023-07-24T11:40:43;27.70;99.90
34829;DHT22;21042;47.620;12.188;2023-07-24T11:43:18;27.90;99.90
34829;DHT22;21042;47.620;12.188;2023-07-24T11:45:46;27.90;99.90
34829;DHT22;21042;47.620;12.188;2023-07-24T11:48:15;27.90;99.90
34829;DHT22;21042;47.620;12.188;2023-07-24T11:50:43;27.50;99.90
34829;DHT22;21042;47.620;12.188;2023-07-24T11:53:24;27.50;99.90
34829;DHT22;21042;47.620;12.188;2023-07-24T11:55:53;27.60;99.90
34829;DHT22;21042;47.620;12.188;2023-07-24T11:58:21;27.50;99.90
34829;DHT22;21042;47.620;12.188;2023-07-24T12:00:49;27.40;99.90
34829;DHT22;21042;47.620;12.188;2023-07-24T12:03:21;27.40;99.90
34829;DHT22;21042;47.620;12.188;2023-07-24T12:05:48;27.40;99.90
34829;DHT22;21042;47.620;12.188;2023-07-24T12:08:19;27.30;99.90
34829;DHT22;21042;47.620;12.188;2023-07-24T12:10:46;27.40;99.90
34829;DHT22;21042;47.620;12.188;2023-07-24T12:13:12;27.20;99.90
34829;DHT22;21042;47.620;12.188;2023-07-24T12:15:39;27.40;99.90
34829;DHT22;21042;47.620;12.188;2023-07-24T12:18:06;27.40;99.90
34829;DHT22;21042;47.620;12.188;2023-07-24T12:20:34;27.10;99.90
34829;DHT22;21042;47.620;12.188;2023-07-24T12:23:01;27.10;99.90
34829;DHT22;21042;47.620;12.188;2023-07-24T12:25:28;27.10;99.90
34829;DHT22;21042;47.620;12.188;2023-07-24T12:27:55;27.00;99.90
34829;DHT22;21042;47.620;12.188;2023-07-24T12:30:22;26.50;99.90
34829;DHT22;21042;47.620;12.188;2023-07-24T12:32:48;26.40;99.90
34829;DHT22;21042;47.620;12.188;2023-07-24T12:35:16;26.40;99.90
34829;DHT22;21042;47.620;12.188;2023-07-24T12:37:44;26.80;99.90
34829;DHT22;21042;47.620;12.188;2023-07-24T12:40:12;27.30;99.90
34829;DHT22;21042;47.620;12.188;2023-07-24T12:42:39;27.50;99.90
34829;DHT22;21042;47.620;12.188;2023-07-24T12:45:06;27.40;99.90
34829;DHT22;21042;47.620;12.188;2023-07-24T12:47:33;27.80;99.90
34829;DHT22;21042;47.620;12.188;2023-07-24T12:50:00;28.10;99.90
34829;DHT22;21042;47.620;12.188;2023-07-24T12:52:29;28.50;99.90
34829;DHT22;21042;47.620;12.188;2023-07-24T12:54:56;28.40;99.90
34829;DHT22;21042;47.620;12.188;2023-07-24T12:57:28;28.50;99.90
34829;DHT22;21042;47.620;12.188;2023-07-24T12:59:55;28.90;99.90
34829;DHT22;21042;47.620;12.188;2023-07-24T13:02:22;28.60;99.90
34829;DHT22;21042;47.620;12.188;2023-07-24T13:04:49;28.30;99.90
34829;DHT22;21042;47.620;12.188;2023-07-24T13:07:15;28.40;99.90
34829;DHT22;21042;47.620;12.188;2023-07-24T13:09:42;28.60;99.90
34829;DHT22;21042;47.620;12.188;2023-07-24T13:12:09;28.70;99.00
34829;DHT22;21042;47.620;12.188;2023-07-24T13:14:36;29.10;99.20
34829;DHT22;21042;47.620;12.188;2023-07-24T13:17:07;29.30;99.20
34829;DHT22;21042;47.620;12.188;2023-07-24T13:19:34;29.50;99.60
34829;DHT22;21042;47.620;12.188;2023-07-24T13:22:01;29.30;98.50
34829;DHT22;21042;47.620;12.188;2023-07-24T13:24:28;29.00;98.80
34829;DHT22;21042;47.620;12.188;2023-07-24T13:26:55;28.70;99.60
34829;DHT22;21042;47.620;12.188;2023-07-24T13:29:21;28.10;99.90
34829;DHT22;21042;47.620;12.188;2023-07-24T13:31:51;27.60;99.90
34829;DHT22;21042;47.620;12.188;2023-07-24T13:34:19;27.10;99.90
34829;DHT22;21042;47.620;12.188;2023-07-24T13:36:46;26.70;99.90
34829;DHT22;21042;47.620;12.188;2023-07-24T13:39:13;26.30;99.90
34829;DHT22;21042;47.620;12.188;2023-07-24T13:41:40;26.00;99.90
34829;DHT22;21042;47.620;12.188;2023-07-24T13:44:07;25.80;99.90
34829;DHT22;21042;47.620;12.188;2023-07-24T13:46:34;25.40;99.90
34829;DHT22;21042;47.620;12.188;2023-07-24T13:49:05;25.00;99.90
34829;DHT22;21042;47.620;12.188;2023-07-24T13:51:32;24.60;99.90
34829;DHT22;21042;47.620;12.188;2023-07-24T13:53:59;24.30;99.90
34829;DHT22;21042;47.620;12.188;2023-07-24T13:56:28;24.00;99.90
34829;DHT22;21042;47.620;12.188;2023-07-24T13:58:57;23.40;99.90
34829;DHT22;21042;47.620;12.188;2023-07-24T14:01:24;21.60;99.90
34829;DHT22;21042;47.620;12.188;2023-07-24T14:03:51;20.20;99.90
34829;DHT22;21042;47.620;12.188;2023-07-24T14:06:18;19.50;99.90
34829;DHT22;21042;47.620;12.188;2023-07-24T14:08:45;19.20;99.90
34829;DHT22;21042;47.620;12.188;2023-07-24T14:11:12;19.10;99.90
34829;DHT22;21042;47.620;12.188;2023-07-24T14:13:39;19.00;99.90
34829;DHT22;21042;47.620;12.188;2023-07-24T14:16:05;19.10;99.90
34829;DHT22;21042;47.620;12.188;2023-07-24T14:18:32;19.20;99.90
34829;DHT22;21042;47.620;12.188;2023-07-24T14:20:59;19.20;99.90
34829;DHT22;21042;47.620;12.188;2023-07-24T14:23:26;19.20;99.90
34829;DHT22;21042;47.620;12.188;2023-07-24T14:25:53;19.30;99.90
34829;DHT22;21042;47.620;12.188;2023-07-24T14:28:20;19.40;99.90
34829;DHT22;21042;47.620;12.188;2023-07-24T14:30:47;19.60;99.90
34829;DHT22;21042;47.620;12.188;2023-07-24T14:33:14;19.70;99.90
34829;DHT22;21042;47.620;12.188;2023-07-24T14:35:40;20.00;99.90
34829;DHT22;21042;47.620;12.188;2023-07-24T14:38:07;20.10;99.90
34829;DHT22;21042;47.620;12.188;2023-07-24T14:40:34;20.30;99.90
34829;DHT22;21042;47.620;12.188;2023-07-24T14:43:01;20.50;99.90
34829;DHT22;21042;47.620;12.188;2023-07-24T14:45:32;20.60;99.90
34829;DHT22;21042;47.620;12.188;2023-07-24T14:47:58;20.90;99.90
34829;DHT22;21042;47.620;12.188;2023-07-24T14:50:25;21.30;99.90
34829;DHT22;21042;47.620;12.188;2023-07-24T14:52:52;21.60;99.90
34829;DHT22;21042;47.620;12.188;2023-07-24T14:55:19;21.90;99.90
34829;DHT22;21042;47.620;12.188;2023-07-24T14:57:46;21.90;99.90
34829;DHT22;21042;47.620;12.188;2023-07-24T15:00:13;21.80;99.90
34829;DHT22;21042;47.620;12.188;2023-07-24T15:02:40;21.60;99.90
34829;DHT22;21042;47.620;12.188;2023-07-24T15:05:07;21.60;99.90
34829;DHT22;21042;47.620;12.188;2023-07-24T15:07:34;21.60;99.90
34829;DHT22;21042;47.620;12.188;2023-07-24T15:10:01;21.60;99.90
34829;DHT22;21042;47.620;12.188;2023-07-24T15:12:27;21.60;99.90
34829;DHT22;21042;47.620;12.188;2023-07-24T15:14:54;21.60;99.90
34829;DHT22;21042;47.620;12.188;2023-07-24T15:17:21;21.70;99.90
34829;DHT22;21042;47.620;12.188;2023-07-24T15:19:48;21.90;99.90
34829;DHT22;21042;47.620;12.188;2023-07-24T15:22:14;22.00;99.90
34829;DHT22;21042;47.620;12.188;2023-07-24T15:24:41;22.10;99.90
34829;DHT22;21042;47.620;12.188;2023-07-24T15:27:09;22.30;99.90
34829;DHT22;21042;47.620;12.188;2023-07-24T15:29:36;22.30;99.90